Airfield :
LOGIN :

Register | Disclaimer

   EN    FR    IT 

 










Legend :    VFR   Marginal VFR   IFR   Intensive IFR   Very Intensive IFR
Visi :
Ceiling :
>= 8 km
>= 3000ft
5 to 8 km
1000 to 3000 ft
1500m to 5 km
500 to 1000 ft
800 to 1500m
200 to 500 ft
< 800m
< 200 ft
Symbols :   Thunderstorms  Fog  Heavy snow  Heavy precipitations  Wind > 20 kt
SIGMETs :     Misc.  Thunderstorms  Icing  Turbulence  Mountain Waves  Volcanic Ashes






- Airport Elevation : 465 ft
- IATA code : LEJ


EDDP - Leipzig Halle

CURRENT METAR :
  • 250350Z AUTO VRB02KT 0250 0200 R26L/0325N R26R/0250N FG VV002 14/14 Q1016 NOSIG

EXPIRED METARs :
  • 250320Z AUTO 20003KT 160V220 0300 0200 R26L/0400N R26R/0375N FG VV002 14/14 Q1016 NOSIG
  • 250250Z AUTO 21005KT 180V240 0350 0300 R26L/0500U R26R/0600U FG VV002 15/15 Q1016 NOSIG
  • 250220Z AUTO 22004KT 0400 0200 R26L/0400N R26R/0600N FG VV002 15/15 Q1017 NOSIG
  • 250150Z AUTO VRB02KT 0800 0400 R08R/0650D R08L/P2000N FG OVC001 15/15 Q1016 BECMG 0500 FG
  • 250120Z AUTO VRB02KT 6000 1100 R08R/P2000N R08L/P2000N BR BKN002 15/15 Q1016 TEMPO 0500 FG
  • 250050Z AUTO VRB02KT 5000 2200 BR BKN002 15/15 Q1016 BECMG 2000 BCFG
  • 250020Z AUTO 12002KT 7000 0800 R08R/P2000N R08L/1200D BCFG BKN003 BKN042 15/15 Q1017 BECMG 0500 FG BKN001
  • 242350Z AUTO VRB02KT 7000 FEW006 SCT043 15/14 Q1017 BECMG 2000 BCFG BKN002
  • 242320Z AUTO 05002KT 9999 SCT011 BKN021 BKN044 15/15 Q1017 BECMG 3500 BR BKN007

TAF TAF EDDP
Valid from the 25 at 00:00 until the 26 at 00:00 UTC


242300Z 2500/2524 VRB03KT 3000 BCFG NSC
TEMPO 2500/2506 0300 FG VV002
BECMG 2506/2508 9999
PROB30
TEMPO 2513/2518 SHRA SCT030CB



MET'MAP, your aeronautical weather chart ! - Copyright ORBIFLY December 2007 - Disclaimer

ORBIFLY MET'MAP TEAM :

Programming & Development : Alexandra Zaïnal
Original concept : Baudouin d'Aumeries
Technical & hardware support : Manuel Goepfert
Assistance : Marc-Olivier Méhu




SOURCES & CREDITS :

   NOAA